Hauptseite
METAR-TAF:

METAR-TAF

Flughäfen :

Fliegerhorst Büchel

Büchel, Deutschland

Breite: 50-10N, Länge: 007-04E, Höhe: 478 m

Beobachtung

Neuester Wetterbericht von vor 44 Minuten, um 15:20 UTC
Wind 14 kt aus West/Südwest
Temperatur 19°C
Luftfeuchtigkeit 60%
Luftdruck 1013 hPa
Sichtweite 10 km oder mehr
Aufgelockert bewölkt in der Höhe von 3000 ft

METAR: ETSB 281520Z 24014KT 9999 SCT030 19/11 Q1013 BLU+FCST CANCEL

Zeit: 18:04 (16:04 UTC)

Prognose

Neuester Wetterbericht von vor 2 Stunden und 14 Minuten, um 13:50 UTC
Gültige Prognose vom 28 um 14 UTC bis 28 um 23 UTC
Wind 12 kt aus Südwest, Böen bis zu 25 kt
Sichtweite 10 km oder mehr
Aufgelockert bewölkt in der Höhe von 3000 ft

TAF: ETSB 281350Z 2814/2823 23012G25KT 9999 NSW SCT030 BY ETGL

Wetterbeobachtungen und Prognosen von mehr als 4000 Flughäfen (METAR und TAF Bericht).

Die verfügbaren Stationen werden durch gelbe und rote Markierungen auf der Karte dargestellt.

Führen Sie die Maus auf sie, um den Namen der Station zu sehen.

Darauf klicken, um die Beobachtung von Wetterbeobachtungen und Prognosen zu sehen.

Um die Karte zu ändern : klicken Sie auf den grünen Tasten mit einem schwarzen Kreuz Zum Vergrößern, auf den grünen Button mit einem Gedankenstrich zu verkleinern, oder auf die grünen Pfeile für benachbarte Karten.


METAR-TAF: